Peetz, CO (80747)

8:46 AM MST on February 13, 2016 (GMT -0700)
Easterly Farms | | Change Station
CLOSE
Current Station
Personal Weather Station
Location: Sidney, NE
Elevation: 4402 ft
Nearby Weather Stations

Elev 4402 ft 41.05 °N, 103.13 °W | Updated 16 minutes ago

Overcast
Overcast
28.2 °F
Feels Like 28 °F
N
0.0
Wind Variable Wind from North
Gusts 0.0 mph

Today
High -- | Low -- °F
--% Chance of Precip.
Yesterday
High -- | Low -- °F
Precip. -- in
Pressure 30.19 in
Visibility 3.0 miles
Clouds Overcast 200 ft
Windchill 28 °F
Dew Point 27 °F
Humidity 96%
Rainfall 0.00 in
Snow Depth Not available.
6:49 AM 5:23 PM
Waxing Crescent, 31% visible
METAR KSNY 131453Z AUTO 18011KT 3SM BR OVC002 M02/M02 A3010 RMK AO2 SLP222 T10171017 56009
Pressure 30.19 in
Visibility 3.0 miles
Clouds Overcast 200 ft
Windchill 28 °F
Dew Point 27 °F
Humidity 96%
Rainfall 0.00 in
Snow Depth Not available.
6:49 AM 5:23 PM
Waxing Crescent, 31% visible
METAR KSNY 131453Z AUTO 18011KT 3SM BR OVC002 M02/M02 A3010 RMK AO2 SLP222 T10171017 56009

10-Day Weather Forecast

Almanac

Astronomy

Feb. 13, 2016 Rise Set
Actual Time
Civil Twilight
Nautical Twilight
Astronomical Twilight
Moon
Length of Visible Light
Length of Day
Tomorrow will be .
, % of the Moon is Illuminated

Today's Extremes

State Highs State Lows

Community

WunderPhotos

Upload Photos

1,892,587 photos uploaded!

WunderBlog® & News

Nearby

Air Quality

  Air Quality AQ Index Pollutant
Not available.

Snow Depth

Station Depth Elevation

Earthquake Activity

City Distance Mag. Time & Date
Minimum magnitude displayed is 2.5.

Coastal Water Temperatures

Place Temperature

Stations

Nearby Weather Stations

Station Location Temp. Windchill Dew Point Humidity Wind Precip. Elev Updated Type
                   

Watches & Warnings

There are currently no watches in effect.